• Join FlightAware (Why Join?)
  • Login
  • US Flag 
08:05PM EDT


 

Airport Tracker/Info


-or-


 

Live Flight TrackerFlight Track Log ✈ VH-NWO ✈ 20-Sep-2013 ✈ YBRO - YPJT / JAD

Flight Track Log - Related Links

Times and Time Zones

All times are in EDT time to prevent confusion due to time zone crossing. See the VH-NWO flight status page for this flight to view local times or setup timezone preferences in your user account.

Time Position Orientation Groundspeed Altitude Reporting Facility
EDT Latitude Longitude Course Direction KTS MPH feet Rate Location/Type
05:51AM -31.8876 117.9678 267° West 16,000  Level Aus ATC (Calculated)
05:52AM -31.8881 117.9033 265° West 16,000 -1,500 Level Aus ATC (Calculated)
05:54AM -31.8885 117.8322 270° West  Level FlightAware Approximate
05:54AM -31.8888 117.7825 94° East 16,000  Level Aus ATC (Calculated)
05:55AM -31.8888 117.7843 270° West  Level FlightAware Approximate
05:56AM -31.8891 117.7313 270° West  Level FlightAware Approximate
05:56AM -31.8923 117.8443 270° West 118 136 9,400  Level Aus ATC (RADAR)
05:56AM -31.8953 117.8283 258° West 118 136 9,700 780 Climbing Aus ATC (RADAR)
05:57AM -31.8977 117.8057 263° West 119 137 10,200 780 Climbing Aus ATC (RADAR)
05:57AM -31.9000 117.7796 264° West 119 137 10,700 780 Climbing Aus ATC (RADAR)
05:58AM -31.9031 117.7570 261° West 120 138 11,200 720 Climbing Aus ATC (RADAR)
05:59AM -31.9054 117.7345 263° West 119 137 11,600 660 Climbing Aus ATC (RADAR)
05:59AM -31.9070 117.7300 262° West 120 138 11,700 660 Climbing FlightAware
05:59AM -31.9081 117.7113 262° West 122 140 12,000 -660 Climbing Aus ATC (RADAR)
05:59AM -31.9040 117.7590 83° East 258 297 11,200  Descending FlightAware
06:00AM -31.9140 117.6620 263° West 150 173 12,000 480 Climbing FlightAware
06:01AM -31.9180 117.6340 260° West 150 173 12,000  Level FlightAware
06:02AM -31.9209 117.5952 260° West 151 174 12,000  Level Aus ATC (RADAR)
06:02AM -31.9220 117.5990 260° West 154 177 12,000  Level FlightAware
06:02AM -31.9250 117.5660 260° West 152 175 12,000  Level FlightAware
06:02AM -31.9253 117.5584 260° West 148 170 12,000  Level Aus ATC (RADAR)
06:03AM -31.9282 117.5297 260° West 149 171 12,000  Level Aus ATC (RADAR)
06:03AM -31.9300 117.5260 260° West 152 175 12,000  Level FlightAware
06:04AM -31.9280 117.5380 79° East 113 130 12,000  Level FlightAware
06:04AM -31.9310 117.5140 262° West 152 175 12,000  Level FlightAware
06:05AM -31.9382 117.4431 262° West 151 174 12,000  Level Aus ATC (RADAR)
06:05AM -31.9340 117.4860 262° West 153 176 12,000  Level FlightAware
06:05AM -31.9370 117.4540 264° West 153 176 12,000  Level FlightAware
06:06AM -31.9420 117.4090 263° West 153 176 12,000  Level FlightAware
06:07AM -31.9490 117.3351 263° West 152 175 12,000  Level Aus ATC (RADAR)
06:07AM -31.9460 117.3680 263° West 154 177 12,000  Level FlightAware
06:07AM -31.9529 117.3018 263° West 151 174 12,000  Level Aus ATC (RADAR)
06:08AM -31.9500 117.3350 263° West 155 178 12,000  Level FlightAware
06:08AM -31.9540 117.3000 262° West 155 178 12,000  Level FlightAware
06:09AM -31.9570 117.2690 263° West 152 175 12,000  Level FlightAware
06:09AM -31.9600 117.2410 263° West 151 174 12,000  Level FlightAware
06:10AM -31.9650 117.1970 262° West 154 177 12,000  Level FlightAware
06:11AM -31.9709 117.1368 262° West 150 173 12,000  Level Aus ATC (RADAR)
06:11AM -31.9690 117.1610 262° West 153 176 12,000  Level FlightAware
06:12AM -31.9720 117.1340 263° West 154 177 12,000  Level FlightAware
06:12AM -31.9750 117.1000 264° West 154 177 12,000  Level FlightAware
06:13AM -31.9790 117.0630 263° West 154 177 12,000  Level FlightAware
06:14AM -31.9820 117.0350 263° West 154 177 12,000  Level FlightAware
06:14AM -31.9860 116.9940 263° West 155 178 12,000  Level FlightAware
06:15AM -31.9915 116.9360 263° West 152 175 12,000  Level Aus ATC (RADAR)
06:15AM -31.9900 116.9600 263° West 157 181 12,000  Level FlightAware
06:16AM -31.9960 116.8990 263° West 153 176 12,000  Level FlightAware
06:16AM -31.9995 116.8656 263° West 149 171 12,000  Level Aus ATC (RADAR)
06:16AM -31.9990 116.8710 263° West 153 176 12,000  Level FlightAware
06:17AM -32.0017 116.8364 263° West 150 173 12,000  Level Aus ATC (RADAR)
06:17AM -32.0000 116.8650 263° West 153 176 12,000  Level FlightAware
06:18AM -32.0040 116.8210 264° West 155 178 12,000 -660 Level FlightAware
06:18AM -32.0100 116.7580 264° West 161 185 11,200 -660 Descending FlightAware
06:19AM -32.0140 116.7300 260° West 161 185 11,200  Level FlightAware
06:20AM -32.0170 116.7040 262° West 161 185 11,200  Level FlightAware
06:20AM -32.0200 116.6760 263° West 161 185 11,200 -2,340 Level FlightAware
06:21AM -32.0190 116.6470 272° West 149 171 8,900 -2,880 Descending FlightAware
06:21AM -32.0190 116.6290 270° West 149 171 8,900  Level FlightAware
06:21AM -32.0200 116.6120 266° West 149 171 8,900 -1,620 Level FlightAware
06:22AM -32.0210 116.5970 266° West 137 158 7,900 -1,500 Descending FlightAware
06:22AM -32.0210 116.5800 270° West 137 158 7,900 -360 Level FlightAware
06:23AM -32.0220 116.5600 267° West 135 155 7,600 -1,080 Descending FlightAware
06:23AM -32.0224 116.5168 267° West 129 148 6,500 -1,140 Descending Aus ATC (RADAR)
06:24AM -32.0230 116.5070 267° West 135 155 6,300 -300 Descending FlightAware
06:24AM -32.0240 116.4920 265° West 135 155 6,300 -600 Level FlightAware
06:24AM -32.0230 116.4760 274° West 136 157 5,900 -1,200 Descending FlightAware
06:25AM -32.0240 116.4540 267° West 138 159 5,500 -480 Descending FlightAware
06:25AM -32.0240 116.4370 270° West 138 159 5,500 -600 Level FlightAware
06:26AM -32.0250 116.4210 266° West 146 168 5,100 -660 Descending FlightAware
06:26AM -32.0254 116.3919 266° West 139 160 5,000 -120 Descending Aus ATC (RADAR)
06:27AM -32.0260 116.3660 269° West 143 165 5,000  Level FlightAware
06:27AM -32.0260 116.3620 270° West 143 165 5,000  Level FlightAware
06:28AM -32.0270 116.3500 264° West 144 166 5,000  Level FlightAware
06:28AM -32.0270 116.3340 270° West 145 167 5,000 -120 Level FlightAware
06:29AM -32.0280 116.3060 268° West 145 167 4,900 -540 Descending FlightAware
06:29AM -32.0280 116.2980 270° West 142 163 4,600 -480 Descending FlightAware
06:29AM -32.0280 116.2790 270° West 142 163 4,600 -1,920 Level FlightAware
06:29AM -32.0290 116.2400 268° West 151 174 3,200 -2,580 Descending FlightAware
06:30AM -32.0300 116.2190 267° West 143 165 3,000 -300 Descending FlightAware
06:30AM -32.0300 116.2020 270° West 143 165 3,000  Level FlightAware
06:31AM -32.0310 116.1690 268° West 156 180 3,000  Level FlightAware
06:31AM -32.0320 116.1510 266° West 156 180 3,000  Level FlightAware
06:32AM -32.0320 116.1200 270° West 160 184 3,000 -180 Level FlightAware
06:33AM -32.0332 116.0646 270° West 156 180 2,800 -180 Descending Aus ATC (RADAR)
06:33AM -32.0337 116.0347 269° West 153 176 2,800  Level Aus ATC (RADAR)
06:34AM -32.0340 116.0120 269° West 125 144 2,800 -300 Level FlightAware
06:35AM -32.0340 115.9868 269° West 113 130 2,500  Descending Aus ATC (RADAR)
06:35AM -32.0350 115.9920 269° West 119 137 2,800 -600 Climbing FlightAware
06:35AM -32.0390 115.9740 255° West 103 119 2,200 -1,080 Descending FlightAware
06:35AM -32.0460 115.9640 230° Southwest 103 119 1,900 -900 Descending FlightAware
06:36AM -32.0550 115.9480 230° Southwest 94 108 1,400 -840 Descending FlightAware
06:36AM -32.0570 115.9454 230° Southwest 99 114 1,400  Level Aus ATC (RADAR)
06:36AM -32.0610 115.9380 235° Southwest 94 108 1,400 -540 Level FlightAware
06:37AM -32.0670 115.9280 235° Southwest 92 106 1,000 -480 Descending FlightAware
06:37AM -32.0730 115.9190 232° Southwest 90 104 1,000 -480 Level FlightAware
06:38AM -32.0840 115.9000 236° Southwest 77 89 400 -540 Descending FlightAware
06:39AM -32.0880 115.8920 239° Southwest 77 89 400  Level FlightAware